Time;durP1;ratioP1;P1;durP2;ratioP2;P2;SDS_P1;SDS_P2;PMS_P1;PMS_P2;Temp;Humidity;BMP_temperature;BMP_pressure;BME280_temperature;BME280_humidity;BME280_pressure;Samples;Min_cycle;Max_cycle;Signal;HPM_P1;HPM_P2
2021/11/15 00:00:53;;;;;;;;;;;;;;;7.12;90.99;96904.97;5074416;28;19962;-74
2021/11/15 00:03:20;;;;;;;;;;;;;;;7.13;91.20;96906.56;5074364;28;20320;-74
2021/11/15 00:05:46;;;;;;;;;;;;;;;7.14;91.32;96896.94;5074412;28;19960;-74
2021/11/15 00:08:11;;;;;;;;;;;;;;;7.13;91.31;96896.13;5074286;28;20444;-74
2021/11/15 00:10:37;;;;;;;;;;;;;;;7.14;91.48;96894.31;5074372;28;19989;-74
2021/11/15 00:13:03;;;;;;;;;;;;;;;7.13;91.24;96890.13;5074381;28;20429;-74
2021/11/15 00:15:29;;;;;;;;;;;;;;;7.12;91.38;96891.94;5072962;28;19990;-74
2021/11/15 00:17:56;;;;;;;;;;;;;;;7.11;91.68;96885.88;5074203;28;19976;-74
2021/11/15 00:20:22;;;;;;;;;;;;;;;7.11;91.67;96883.28;5073411;28;19953;-74
2021/11/15 00:22:48;;;;;;;;;;;;;;;7.10;91.59;96886.88;5074119;28;19952;-74
2021/11/15 00:25:15;;;;;;;;;;;;;;;7.09;91.44;96889.66;5074163;28;20438;-74
2021/11/15 00:27:41;;;;;;;;;;;;;;;7.05;90.80;96885.81;5074037;28;19956;-74
2021/11/15 00:30:08;;;;;;;;;;;;;;;7.02;90.95;96883.59;5073961;28;20297;-74
2021/11/15 00:32:34;;;;;;;;;;;;;;;7.01;91.70;96885.38;5073630;28;20350;-74
2021/11/15 00:35:00;;;;;;;;;;;;;;;7.01;91.03;96890.56;5074087;28;19969;-74
2021/11/15 00:37:26;;;;;;;;;;;;;;;7.00;91.36;96885.56;5074096;28;20293;-74
2021/11/15 00:39:52;;;;;;;;;;;;;;;7.00;91.95;96894.19;5073796;28;19962;-74
2021/11/15 00:42:18;;;;;;;;;;;;;;;7.01;92.09;96897.59;5073992;28;19971;-74
2021/11/15 00:44:44;;;;;;;;;;;;;;;7.01;91.62;96895.78;5073844;28;20395;-74
2021/11/15 00:47:10;;;;;;;;;;;;;;;7.01;91.35;96898.41;5074078;28;19952;-74
2021/11/15 00:49:36;;;;;;;;;;;;;;;7.00;91.30;96896.81;5073457;28;19990;-74
2021/11/15 00:52:03;;;;;;;;;;;;;;;6.99;91.48;96900.41;5073670;28;20457;-74
2021/11/15 00:54:29;;;;;;;;;;;;;;;7.00;91.60;96896.00;5073582;28;19983;-74
2021/11/15 00:56:55;;;;;;;;;;;;;;;6.98;91.66;96897.97;5073728;28;19985;-74
2021/11/15 00:59:21;;;;;;;;;;;;;;;6.96;91.45;96903.38;5073465;28;19995;-74
2021/11/15 01:01:47;;;;;;;;;;;;;;;6.95;91.38;96907.00;5072452;28;19966;-74
2021/11/15 01:04:13;;;;;;;;;;;;;;;6.93;91.19;96901.16;5073372;28;19959;-74
2021/11/15 01:06:39;;;;;;;;;;;;;;;6.88;89.58;96908.69;5073940;28;19960;-74
2021/11/15 01:09:05;;;;;;;;;;;;;;;6.86;90.77;96908.88;5073781;28;20019;-74
2021/11/15 01:11:31;;;;;;;;;;;;;;;6.85;90.85;96902.06;5073469;28;19975;-74
2021/11/15 01:13:57;;;;;;;;;;;;;;;6.86;90.63;96906.25;5072965;28;19959;-74
2021/11/15 01:16:23;;;;;;;;;;;;;;;6.87;90.54;96912.31;5073489;28;20331;-74
2021/11/15 01:18:50;;;;;;;;;;;;;;;6.88;90.78;96911.31;5073616;28;19964;-75
2021/11/15 01:21:17;;;;;;;;;;;;;;;6.91;91.19;96905.75;5073430;28;19963;-74
2021/11/15 01:23:44;;;;;;;;;;;;;;;6.91;91.16;96898.72;5073661;28;19958;-74
2021/11/15 01:26:10;;;;;;;;;;;;;;;6.90;90.80;96906.72;5073215;28;19948;-75
2021/11/15 01:28:36;;;;;;;;;;;;;;;6.86;90.33;96903.66;5072033;28;19961;-74
2021/11/15 01:31:03;;;;;;;;;;;;;;;6.84;91.18;96907.44;5073126;28;19971;-74
2021/11/15 01:33:29;;;;;;;;;;;;;;;6.84;91.40;96907.44;5076757;28;19959;-74
2021/11/15 01:35:55;;;;;;;;;;;;;;;6.83;91.81;96911.84;5077519;28;20042;-75
2021/11/15 01:38:21;;;;;;;;;;;;;;;6.83;92.09;96905.84;5077296;28;19945;-74
2021/11/15 01:40:47;;;;;;;;;;;;;;;6.82;91.50;96897.19;5076216;28;19969;-74
2021/11/15 01:43:13;;;;;;;;;;;;;;;6.82;91.71;96905.00;5077271;28;19950;-74
2021/11/15 01:45:39;;;;;;;;;;;;;;;6.82;91.46;96896.38;5077167;28;20041;-74
2021/11/15 01:48:06;;;;;;;;;;;;;;;6.79;91.15;96905.38;5077679;28;20442;-74
2021/11/15 01:50:33;;;;;;;;;;;;;;;6.79;90.73;96899.38;5076865;28;19965;-74
2021/11/15 01:52:59;;;;;;;;;;;;;;;6.76;91.39;96897.94;5076993;28;20412;-75
2021/11/15 01:55:26;;;;;;;;;;;;;;;6.75;90.77;96903.34;5076643;28;19981;-74
2021/11/15 01:57:52;;;;;;;;;;;;;;;6.70;89.83;96906.50;5077201;28;19966;-75
2021/11/15 02:00:21;;;;;;;;;;;;;;;6.66;89.84;96902.63;5076916;28;19986;-74
2021/11/15 02:02:47;;;;;;;;;;;;;;;6.65;91.18;96899.19;5076704;28;19970;-74
2021/11/15 02:05:13;;;;;;;;;;;;;;;6.64;90.89;96905.41;5076721;28;19993;-74
2021/11/15 02:07:38;;;;;;;;;;;;;;;6.61;90.30;96899.75;5076994;28;19956;-74
2021/11/15 02:10:06;;;;;;;;;;;;;;;6.60;90.91;96892.94;5076505;28;19962;-74
2021/11/15 02:12:32;;;;;;;;;;;;;;;6.54;89.61;96899.66;5077187;28;19974;-74
2021/11/15 02:14:58;;;;;;;;;;;;;;;6.51;90.45;96902.63;5076792;28;20433;-74
2021/11/15 02:17:24;;;;;;;;;;;;;;;6.48;90.45;96893.38;5076871;28;20005;-74
2021/11/15 02:19:50;;;;;;;;;;;;;;;6.50;90.81;96895.81;5076656;28;19958;-74
2021/11/15 02:22:16;;;;;;;;;;;;;;;6.53;90.78;96894.63;5076569;28;19955;-74
2021/11/15 02:24:43;;;;;;;;;;;;;;;6.57;90.55;96895.88;5076179;28;19957;-74
2021/11/15 02:27:10;;;;;;;;;;;;;;;6.57;89.98;96890.66;5076439;28;19962;-74
2021/11/15 02:29:39;;;;;;;;;;;;;;;6.57;90.09;96890.66;5076185;28;19952;-74
2021/11/15 02:32:06;;;;;;;;;;;;;;;6.55;90.53;96884.81;5076194;28;19976;-74
2021/11/15 02:34:32;;;;;;;;;;;;;;;6.55;90.80;96877.84;5076502;28;19963;-74
2021/11/15 02:36:58;;;;;;;;;;;;;;;6.54;91.17;96881.41;5076104;28;19971;-74
2021/11/15 02:39:24;;;;;;;;;;;;;;;6.52;90.58;96883.41;5076189;28;20435;-74
2021/11/15 02:41:50;;;;;;;;;;;;;;;6.50;89.60;96888.78;5076050;28;20051;-74
2021/11/15 02:44:15;;;;;;;;;;;;;;;6.44;89.27;96888.69;5074993;28;20427;-74
2021/11/15 02:46:41;;;;;;;;;;;;;;;6.42;90.26;96888.06;5075972;28;20007;-76
2021/11/15 02:49:07;;;;;;;;;;;;;;;6.39;89.75;96878.84;5075915;28;19959;-74
2021/11/15 02:51:33;;;;;;;;;;;;;;;6.38;89.69;96887.63;5075630;28;20404;-74
2021/11/15 02:53:59;;;;;;;;;;;;;;;6.37;88.71;96890.44;5075925;28;20028;-75
2021/11/15 02:56:25;;;;;;;;;;;;;;;6.38;89.46;96892.03;5076038;28;19966;-74
2021/11/15 02:58:51;;;;;;;;;;;;;;;6.37;89.81;96886.00;5075674;28;19967;-74
2021/11/15 03:01:19;;;;;;;;;;;;;;;6.36;89.59;96883.59;5075748;28;19993;-74
2021/11/15 03:03:45;;;;;;;;;;;;;;;6.34;89.91;96883.78;5076102;28;19980;-74
2021/11/15 03:06:11;;;;;;;;;;;;;;;6.34;88.93;96886.38;5075479;28;19962;-74
2021/11/15 03:08:38;;;;;;;;;;;;;;;6.32;89.31;96887.53;5075741;28;19960;-74
2021/11/15 03:11:05;;;;;;;;;;;;;;;6.32;89.41;96890.13;5075414;28;19961;-74
2021/11/15 03:13:36;;;;;;;;;;;;;;;6.32;90.09;96884.94;5075891;28;19956;-74
2021/11/15 03:16:02;;;;;;;;;;;;;;;6.33;89.47;96891.78;5075560;28;19953;-74
2021/11/15 03:18:30;;;;;;;;;;;;;;;6.30;88.59;96896.34;5075736;28;19959;-74
2021/11/15 03:20:58;;;;;;;;;;;;;;;6.32;88.90;96892.75;5075354;28;20430;-74
2021/11/15 03:23:26;;;;;;;;;;;;;;;6.28;88.08;96882.69;5075356;28;20320;-74
2021/11/15 03:25:52;;;;;;;;;;;;;;;6.26;89.27;96884.66;5075313;28;19960;-74
2021/11/15 03:28:23;;;;;;;;;;;;;;;6.25;89.32;96885.66;5074808;28;19964;-74
2021/11/15 03:30:51;;;;;;;;;;;;;;;6.26;89.33;96883.88;5075286;28;19964;-74
2021/11/15 03:33:17;;;;;;;;;;;;;;;6.27;89.37;96885.47;5075311;28;19979;-74
2021/11/15 03:35:43;;;;;;;;;;;;;;;6.27;88.79;96888.06;5074854;28;19963;-74
2021/11/15 03:38:10;;;;;;;;;;;;;;;6.25;88.85;96890.06;5075108;28;19958;-74
2021/11/15 03:40:37;;;;;;;;;;;;;;;6.17;87.21;96883.13;5073929;28;19962;-74
2021/11/15 03:43:05;;;;;;;;;;;;;;;6.16;88.71;96885.94;5074765;28;19966;-74
2021/11/15 03:45:31;;;;;;;;;;;;;;;6.15;88.97;96887.69;5074795;28;19956;-74
2021/11/15 03:47:57;;;;;;;;;;;;;;;6.17;89.40;96883.13;5074782;28;19958;-74
2021/11/15 03:50:24;;;;;;;;;;;;;;;6.15;87.77;96885.09;5074753;28;19954;-74
2021/11/15 03:52:50;;;;;;;;;;;;;;;6.09;87.11;96886.63;5074730;28;19977;-74
2021/11/15 03:55:17;;;;;;;;;;;;;;;6.03;87.56;96876.13;5074779;28;19988;-74
2021/11/15 03:57:43;;;;;;;;;;;;;;;6.01;87.78;96891.13;5074556;28;19962;-74
2021/11/15 04:00:11;;;;;;;;;;;;;;;5.97;88.12;96895.06;5074685;28;19962;-74
2021/11/15 04:02:38;;;;;;;;;;;;;;;5.97;88.65;96885.47;5074335;28;19954;-76
2021/11/15 04:05:06;;;;;;;;;;;;;;;6.00;88.91;96889.50;5074709;28;19975;-74
2021/11/15 04:07:41;;;;;;;;;;;;;;;6.00;88.20;96889.50;5074307;28;19971;-74
2021/11/15 04:10:07;;;;;;;;;;;;;;;5.97;87.29;96884.66;5074834;28;19955;-74
2021/11/15 04:12:33;;;;;;;;;;;;;;;5.94;88.80;96885.75;5074462;28;20388;-74
2021/11/15 04:14:59;;;;;;;;;;;;;;;5.90;88.10;96880.13;5074355;28;19962;-75
2021/11/15 04:17:25;;;;;;;;;;;;;;;5.88;88.28;96887.31;5074139;28;19998;-74
2021/11/15 04:19:51;;;;;;;;;;;;;;;5.86;88.19;96886.66;5074302;28;20524;-74
2021/11/15 04:22:18;;;;;;;;;;;;;;;5.85;88.16;96886.84;5072897;28;19987;-74
2021/11/15 04:24:44;;;;;;;;;;;;;;;5.81;88.22;96888.97;5074549;28;19966;-74
2021/11/15 04:27:10;;;;;;;;;;;;;;;5.81;88.58;96888.19;5074080;28;19961;-74
2021/11/15 04:29:36;;;;;;;;;;;;;;;5.80;88.69;96889.97;5074172;28;19959;-74
2021/11/15 04:32:02;;;;;;;;;;;;;;;5.80;88.45;96878.75;5073959;28;20008;-74
2021/11/15 04:34:28;;;;;;;;;;;;;;;5.81;87.38;96873.34;5074325;28;19961;-74
2021/11/15 04:36:54;;;;;;;;;;;;;;;5.83;87.98;96883.59;5073987;28;19959;-74
2021/11/15 04:39:20;;;;;;;;;;;;;;;5.84;88.69;96883.44;5073948;28;20340;-74
2021/11/15 04:41:46;;;;;;;;;;;;;;;5.87;88.20;96884.88;5073811;28;19960;-74
2021/11/15 04:44:12;;;;;;;;;;;;;;;5.90;89.03;96882.72;5074172;28;20404;-74
2021/11/15 04:46:38;;;;;;;;;;;;;;;5.94;88.87;96882.34;5073705;28;20000;-74
2021/11/15 04:49:04;;;;;;;;;;;;;;;5.95;88.26;96876.22;5073795;28;20008;-74
2021/11/15 04:51:30;;;;;;;;;;;;;;;5.95;88.40;96884.81;5072869;28;19959;-74
2021/11/15 04:53:56;;;;;;;;;;;;;;;5.90;88.00;96881.94;5073662;28;20339;-74
2021/11/15 04:56:22;;;;;;;;;;;;;;;5.89;88.45;96885.50;5073820;28;20062;-74
2021/11/15 04:58:49;;;;;;;;;;;;;;;5.86;88.25;96878.88;5073677;28;20021;-74
2021/11/15 05:01:15;;;;;;;;;;;;;;;5.85;88.63;96879.03;5073660;28;20326;-74
2021/11/15 05:03:41;;;;;;;;;;;;;;;5.84;88.67;96886.03;5074098;28;19955;-74
2021/11/15 05:06:07;;;;;;;;;;;;;;;5.82;89.05;96884.59;5073311;28;20053;-74
2021/11/15 05:08:33;;;;;;;;;;;;;;;5.78;88.56;96883.34;5073387;28;19956;-74
2021/11/15 05:10:58;;;;;;;;;;;;;;;5.74;88.54;96882.88;5073552;28;19965;-74
2021/11/15 05:13:24;;;;;;;;;;;;;;;5.73;89.29;96883.84;5073449;28;20001;-74
2021/11/15 05:15:50;;;;;;;;;;;;;;;5.74;89.22;96884.66;5073765;28;19959;-74
2021/11/15 05:18:16;;;;;;;;;;;;;;;5.73;89.52;96881.25;5073523;28;19962;-74
2021/11/15 05:20:42;;;;;;;;;;;;;;;5.74;89.23;96880.28;5073325;28;19959;-74
2021/11/15 05:23:09;;;;;;;;;;;;;;;5.69;87.67;96887.78;5073619;28;20408;-74
2021/11/15 05:25:35;;;;;;;;;;;;;;;5.69;87.72;96890.38;5073493;28;19966;-74
2021/11/15 05:28:00;;;;;;;;;;;;;;;5.64;87.18;96879.72;5073405;28;20354;-74
2021/11/15 05:30:26;;;;;;;;;;;;;;;5.62;87.72;96881.66;5073542;28;20004;-74
2021/11/15 05:32:55;;;;;;;;;;;;;;;5.61;87.83;96888.69;5073301;28;20454;-74
2021/11/15 05:35:21;;;;;;;;;;;;;;;5.59;87.38;96882.03;5073209;28;20416;-74
2021/11/15 05:37:49;;;;;;;;;;;;;;;5.58;87.32;96883.81;5073301;28;19967;-74
2021/11/15 05:40:16;;;;;;;;;;;;;;;5.57;88.27;96884.81;5073398;28;19960;-74
2021/11/15 05:42:42;;;;;;;;;;;;;;;5.59;89.03;96895.84;5073178;28;19959;-74
2021/11/15 05:45:08;;;;;;;;;;;;;;;5.58;88.14;96894.22;5072016;28;19974;-74
2021/11/15 05:47:34;;;;;;;;;;;;;;;5.60;88.61;96897.44;5073123;28;19955;-74
2021/11/15 05:50:00;;;;;;;;;;;;;;;5.63;88.68;96889.31;5073532;28;19966;-74
2021/11/15 05:52:26;;;;;;;;;;;;;;;5.64;88.26;96893.50;5073318;28;20458;-74
2021/11/15 05:54:53;;;;;;;;;;;;;;;5.64;88.23;96901.31;5071866;28;19986;-74
2021/11/15 05:57:19;;;;;;;;;;;;;;;5.64;88.41;96905.72;5073008;28;19952;-74
2021/11/15 05:59:45;;;;;;;;;;;;;;;5.65;88.75;96907.34;5073118;28;19959;-74
2021/11/15 06:02:11;;;;;;;;;;;;;;;5.65;88.28;96902.97;5073388;28;19951;-74
2021/11/15 06:04:38;;;;;;;;;;;;;;;5.63;87.31;96904.13;5073359;28;19967;-74
2021/11/15 06:07:04;;;;;;;;;;;;;;;5.58;87.43;96903.81;5073100;28;20338;-74
2021/11/15 06:09:30;;;;;;;;;;;;;;;5.53;87.97;96904.34;5072885;28;19952;-74
2021/11/15 06:11:56;;;;;;;;;;;;;;;5.54;88.28;96905.16;5071702;28;19949;-74
2021/11/15 06:14:22;;;;;;;;;;;;;;;5.51;88.29;96900.31;5073028;28;19958;-74
2021/11/15 06:16:49;;;;;;;;;;;;;;;5.53;89.02;96903.53;5072797;28;19961;-74
2021/11/15 06:19:15;;;;;;;;;;;;;;;5.54;89.10;96905.16;5074164;28;19945;-74
2021/11/15 06:21:40;;;;;;;;;;;;;;;5.56;89.04;96908.38;5076390;28;19955;-74
2021/11/15 06:24:06;;;;;;;;;;;;;;;5.54;87.65;96920.75;5076516;28;19959;-74
2021/11/15 06:26:32;;;;;;;;;;;;;;;5.51;88.59;96915.91;5076423;28;20348;-74
2021/11/15 06:28:58;;;;;;;;;;;;;;;5.50;88.10;96917.69;5076373;28;19953;-74
2021/11/15 06:31:25;;;;;;;;;;;;;;;5.51;88.95;96916.72;5076256;28;19959;-74
2021/11/15 06:33:52;;;;;;;;;;;;;;;5.53;89.16;96917.34;5076530;28;19968;-74
2021/11/15 06:36:24;;;;;;;;;;;;;;;5.54;88.40;96918.16;5076058;28;20334;-74
2021/11/15 06:38:53;;;;;;;;;;;;;;;5.55;88.81;96919.78;5076318;28;19960;-74
2021/11/15 06:41:20;;;;;;;;;;;;;;;5.56;89.00;96922.19;5076183;28;20319;-74
2021/11/15 06:43:46;;;;;;;;;;;;;;;5.52;88.10;96926.13;5076059;28;19959;-74
2021/11/15 06:46:14;;;;;;;;;;;;;;;5.50;88.26;96930.69;5076062;28;19953;-74
2021/11/15 06:48:43;;;;;;;;;;;;;;;5.51;88.93;96929.72;5076061;28;19954;-74
2021/11/15 06:51:10;;;;;;;;;;;;;;;5.52;88.76;96939.13;5075832;28;19959;-74
2021/11/15 06:53:36;;;;;;;;;;;;;;;5.53;88.04;96938.16;5075977;28;20460;-75
2021/11/15 06:56:03;;;;;;;;;;;;;;;5.51;88.46;96936.72;5075962;28;19959;-74
2021/11/15 06:58:30;;;;;;;;;;;;;;;5.53;88.64;96938.16;5075899;28;20429;-74
2021/11/15 07:00:56;;;;;;;;;;;;;;;5.51;87.91;96940.13;5075744;28;19942;-74
2021/11/15 07:03:22;;;;;;;;;;;;;;;5.46;87.84;96934.66;5075711;28;20335;-74
2021/11/15 07:05:48;;;;;;;;;;;;;;;5.45;88.80;96933.81;5075688;28;19964;-74
2021/11/15 07:08:15;;;;;;;;;;;;;;;5.50;88.88;96946.31;5075570;28;19960;-74
2021/11/15 07:10:41;;;;;;;;;;;;;;;5.51;87.85;96932.31;5075678;28;20319;-74
2021/11/15 07:13:07;;;;;;;;;;;;;;;5.52;88.34;96933.13;5075558;28;19969;-74
2021/11/15 07:15:33;;;;;;;;;;;;;;;5.52;88.74;96944.34;5075711;28;20047;-74
2021/11/15 07:17:59;;;;;;;;;;;;;;;5.52;88.19;96940.94;5075386;28;20473;-74
2021/11/15 07:20:25;;;;;;;;;;;;;;;5.51;88.85;96934.94;5075347;28;19974;-74
2021/11/15 07:22:51;;;;;;;;;;;;;;;5.56;89.02;96939.59;5075230;28;20333;-74
2021/11/15 07:25:18;;;;;;;;;;;;;;;5.54;87.40;96944.19;5075347;28;19958;-74
2021/11/15 07:27:46;;;;;;;;;;;;;;;5.48;87.30;96938.69;5075329;28;20425;-74
2021/11/15 07:30:12;;;;;;;;;;;;;;;5.47;88.06;96939.66;5074886;28;20452;-74
2021/11/15 07:32:39;;;;;;;;;;;;;;;5.49;88.02;96935.09;5075149;28;20356;-74
2021/11/15 07:35:05;;;;;;;;;;;;;;;5.48;87.12;96932.66;5074915;28;20343;-74
2021/11/15 07:37:31;;;;;;;;;;;;;;;5.49;87.87;96934.28;5075553;28;19943;-74
2021/11/15 07:39:57;;;;;;;;;;;;;;;5.53;88.33;96942.56;5075169;28;19960;-74
2021/11/15 07:42:23;;;;;;;;;;;;;;;5.55;87.44;96941.41;5075463;28;19965;-74
2021/11/15 07:44:49;;;;;;;;;;;;;;;5.56;88.15;96945.63;5075049;28;19956;-74
2021/11/15 07:47:15;;;;;;;;;;;;;;;5.57;87.03;96946.44;5074943;28;19974;-74
2021/11/15 07:49:42;;;;;;;;;;;;;;;5.55;88.06;96943.22;5074876;28;19966;-74
2021/11/15 07:52:08;;;;;;;;;;;;;;;5.53;87.45;96939.97;5074567;28;20317;-74
2021/11/15 07:54:34;;;;;;;;;;;;;;;5.52;87.93;96949.53;5074469;28;19976;-74
2021/11/15 07:57:00;;;;;;;;;;;;;;;5.45;86.67;96946.03;5074545;28;19962;-74
2021/11/15 07:59:26;;;;;;;;;;;;;;;5.42;87.30;96962.00;5074762;28;20308;-74
2021/11/15 08:01:53;;;;;;;;;;;;;;;5.44;87.68;96965.22;5074733;28;19956;-74
2021/11/15 08:04:19;;;;;;;;;;;;;;;5.42;87.27;96967.19;5074310;28;19951;-74
2021/11/15 08:06:45;;;;;;;;;;;;;;;5.43;87.63;96961.78;5075096;28;19959;-74
2021/11/15 08:09:11;;;;;;;;;;;;;;;5.44;88.07;96960.81;5074535;28;19953;-74
2021/11/15 08:11:38;;;;;;;;;;;;;;;5.43;87.41;96961.78;5074318;28;19945;-74
2021/11/15 08:14:04;;;;;;;;;;;;;;;5.45;88.19;96961.63;5074315;28;19974;-74
2021/11/15 08:16:31;;;;;;;;;;;;;;;5.44;87.50;96966.03;5074289;28;19952;-74
2021/11/15 08:18:57;;;;;;;;;;;;;;;5.45;87.78;96969.44;5074242;28;19965;-74
2021/11/15 08:21:24;;;;;;;;;;;;;;;5.46;87.82;96961.47;5074133;28;19960;-74
2021/11/15 08:23:51;;;;;;;;;;;;;;;5.50;88.42;96959.31;5074409;28;19953;-74
2021/11/15 08:26:17;;;;;;;;;;;;;;;5.54;88.74;96946.78;5073997;28;19955;-74
2021/11/15 08:28:43;;;;;;;;;;;;;;;5.58;88.49;96958.44;5073970;28;19956;-74
2021/11/15 08:31:09;;;;;;;;;;;;;;;5.61;88.06;96955.53;5074080;28;19954;-74
2021/11/15 08:33:36;;;;;;;;;;;;;;;5.62;87.99;96957.94;5073661;28;19972;-74
2021/11/15 08:36:02;;;;;;;;;;;;;;;5.64;88.04;96960.38;5073950;28;19960;-74
2021/11/15 08:38:28;;;;;;;;;;;;;;;5.67;88.23;96960.84;5073877;28;20031;-74
2021/11/15 08:40:54;;;;;;;;;;;;;;;5.66;86.43;96961.00;5073903;28;19951;-74
2021/11/15 08:43:22;;;;;;;;;;;;;;;5.62;86.52;96962.34;5073488;28;19960;-74
2021/11/15 08:45:49;;;;;;;;;;;;;;;5.59;86.99;96965.28;5073706;28;20323;-74
2021/11/15 08:48:16;;;;;;;;;;;;;;;5.59;86.79;96962.69;5073707;28;19959;-74
2021/11/15 08:50:42;;;;;;;;;;;;;;;5.57;86.96;96959.44;5073778;28;19951;-74
2021/11/15 08:53:08;;;;;;;;;;;;;;;5.55;86.98;96959.63;5073636;28;20342;-74
2021/11/15 08:55:35;;;;;;;;;;;;;;;5.55;87.80;96957.00;5072256;28;19971;-74
2021/11/15 08:58:01;;;;;;;;;;;;;;;5.57;87.84;96959.44;5073750;28;20349;-74
2021/11/15 09:00:27;;;;;;;;;;;;;;;5.60;87.71;96966.91;5073630;28;19965;-75
2021/11/15 09:02:54;;;;;;;;;;;;;;;5.62;87.22;96963.13;5073836;28;19957;-74
2021/11/15 09:05:20;;;;;;;;;;;;;;;5.63;87.93;96966.56;5073724;28;20406;-74
2021/11/15 09:07:47;;;;;;;;;;;;;;;5.65;87.57;96972.41;5073595;28;19960;-74
2021/11/15 09:10:13;;;;;;;;;;;;;;;5.65;86.82;96964.59;5073510;28;19966;-74
2021/11/15 09:12:40;;;;;;;;;;;;;;;5.59;86.19;96963.50;5073489;28;19975;-74
2021/11/15 09:15:07;;;;;;;;;;;;;;;5.56;87.20;96966.44;5073638;28;19956;-74
2021/11/15 09:17:34;;;;;;;;;;;;;;;5.55;87.33;96969.22;5073596;28;19959;-74
2021/11/15 09:20:00;;;;;;;;;;;;;;;5.55;87.65;96962.22;5074031;28;19954;-74
2021/11/15 09:22:26;;;;;;;;;;;;;;;5.59;88.95;96962.69;5073290;28;19978;-74
2021/11/15 09:24:52;;;;;;;;;;;;;;;5.65;89.05;96962.00;5073493;28;19951;-74
2021/11/15 09:27:18;;;;;;;;;;;;;;;5.70;88.88;96954.47;5073662;28;19963;-74
2021/11/15 09:29:45;;;;;;;;;;;;;;;5.73;88.10;96956.72;5073160;28;19963;-74
2021/11/15 09:32:12;;;;;;;;;;;;;;;5.69;86.69;96955.44;5073526;28;19964;-74
2021/11/15 09:34:40;;;;;;;;;;;;;;;5.65;86.33;96964.59;5073432;28;19982;-74
2021/11/15 09:37:07;;;;;;;;;;;;;;;5.62;86.79;96968.34;5072022;28;19951;-74
2021/11/15 09:39:33;;;;;;;;;;;;;;;5.64;87.76;96970.78;5073228;28;19964;-74
2021/11/15 09:42:00;;;;;;;;;;;;;;;5.68;87.98;96967.66;5073489;28;19984;-74
2021/11/15 09:44:26;;;;;;;;;;;;;;;5.77;88.63;96968.38;5073108;28;20423;-74
2021/11/15 09:46:52;;;;;;;;;;;;;;;5.82;87.22;96968.69;5073417;28;19976;-74
2021/11/15 09:49:18;;;;;;;;;;;;;;;5.82;87.02;96960.88;5073242;28;19956;-74
2021/11/15 09:51:46;;;;;;;;;;;;;;;5.83;87.27;96965.09;5073235;28;19954;-74
2021/11/15 09:54:12;;;;;;;;;;;;;;;5.84;87.04;96966.72;5075941;28;19979;-74
2021/11/15 09:56:39;;;;;;;;;;;;;;;5.86;86.58;96969.16;5075588;28;19955;-74
2021/11/15 09:59:07;;;;;;;;;;;;;;;5.84;85.48;96977.13;5077267;28;19987;-74
2021/11/15 10:01:34;;;;;;;;;;;;;;;5.82;85.89;96973.09;5076842;28;20440;-75
2021/11/15 10:04:00;;;;;;;;;;;;;;;5.78;85.59;96967.41;5076675;28;19960;-74
2021/11/15 10:06:26;;;;;;;;;;;;;;;5.76;85.98;96969.38;5076967;28;19993;-74
2021/11/15 10:08:54;;;;;;;;;;;;;;;5.72;84.99;96962.91;5076709;28;19953;-74
2021/11/15 10:11:22;;;;;;;;;;;;;;;5.67;84.58;96957.44;5076489;28;19955;-74
2021/11/15 10:13:49;;;;;;;;;;;;;;;5.65;85.07;96957.59;5076375;28;20341;-74
2021/11/15 10:16:16;;;;;;;;;;;;;;;5.61;84.02;96960.72;5076680;28;20314;-74
2021/11/15 10:18:51;;;;;;;;;;;;;;;5.56;84.63;96963.03;5076471;28;19957;-74
2021/11/15 10:21:17;;;;;;;;;;;;;;;5.54;85.57;96960.59;5076703;28;19958;-74
2021/11/15 10:23:46;;;;;;;;;;;;;;;5.57;86.26;96962.84;5076405;28;20014;-74
2021/11/15 10:26:23;;;;;;;;;;;;;;;5.61;86.00;96955.53;5076192;28;19958;-74
2021/11/15 10:29:25;;;;;;;;;;;;;;;5.64;86.44;96962.97;5076515;28;19951;-74
2021/11/15 10:31:55;;;;;;;;;;;;;;;5.66;85.82;96964.41;5054450;28;19952;-74
2021/11/15 10:34:44;;;;;;;;;;;;;;;5.68;85.43;96959.03;5072585;28;19970;-74
2021/11/15 10:37:14;;;;;;;;;;;;;;;5.66;84.62;96954.00;5073110;28;19954;-74
2021/11/15 10:39:46;;;;;;;;;;;;;;;5.64;85.19;96949.97;5076093;28;19952;-74
2021/11/15 10:42:13;;;;;;;;;;;;;;;5.66;85.94;96943.59;5076019;28;19957;-74
2021/11/15 10:44:47;;;;;;;;;;;;;;;5.68;85.31;96944.22;5076315;28;19951;-74
2021/11/15 10:47:14;;;;;;;;;;;;;;;5.68;84.35;96933.00;5075947;28;19966;-74
2021/11/15 10:49:40;;;;;;;;;;;;;;;5.65;84.32;96938.59;5075990;28;19956;-74
2021/11/15 10:52:09;;;;;;;;;;;;;;;5.66;84.80;96930.56;5076109;28;20405;-74
2021/11/15 10:54:55;;;;;;;;;;;;;;;5.73;85.76;96941.09;5075774;28;19985;-74
2021/11/15 10:57:21;;;;;;;;;;;;;;;5.79;85.91;96934.38;5076383;28;19960;-74
2021/11/15 11:00:11;;;;;;;;;;;;;;;5.83;85.40;96936.47;5075834;28;19954;-74
2021/11/15 11:02:41;;;;;;;;;;;;;;;5.85;85.32;96931.09;5072702;28;20432;-74
2021/11/15 11:05:10;;;;;;;;;;;;;;;5.86;84.95;96932.72;5075000;28;19964;-74
2021/11/15 11:07:37;;;;;;;;;;;;;;;5.84;83.73;96932.09;5075801;28;19953;-74
2021/11/15 11:10:05;;;;;;;;;;;;;;;5.81;85.02;96928.00;5075501;28;20345;-74
2021/11/15 11:12:36;;;;;;;;;;;;;;;5.82;84.93;96919.25;5075964;28;20323;-74
2021/11/15 11:15:24;;;;;;;;;;;;;;;5.85;85.24;96915.47;5075565;28;19966;-74
2021/11/15 11:18:14;;;;;;;;;;;;;;;5.88;85.89;96915.13;5075256;28;19958;-74
2021/11/15 11:21:13;;;;;;;;;;;;;;;5.92;85.93;96921.56;5076085;28;19965;-74
2021/11/15 11:23:58;;;;;;;;;;;;;;;5.94;85.98;96914.41;5062964;28;19956;-74
2021/11/15 11:26:28;;;;;;;;;;;;;;;5.92;84.51;96918.97;5064059;28;19954;-74
2021/11/15 11:29:01;;;;;;;;;;;;;;;5.88;84.92;96926.34;5075458;28;20413;-76
2021/11/15 11:31:32;;;;;;;;;;;;;;;5.86;84.37;96922.31;5075859;28;19956;-73
2021/11/15 11:33:59;;;;;;;;;;;;;;;5.82;84.17;96919.25;5074990;28;19971;-74
2021/11/15 11:36:25;;;;;;;;;;;;;;;5.81;85.15;96922.81;5075451;28;19959;-74
2021/11/15 11:38:51;;;;;;;;;;;;;;;5.84;85.47;96929.47;5074539;28;19954;-74
2021/11/15 11:41:18;;;;;;;;;;;;;;;5.83;83.96;96933.84;5064609;28;19976;-74
2021/11/15 11:43:45;;;;;;;;;;;;;;;5.80;84.62;96921.22;5074806;28;19960;-74
2021/11/15 11:46:12;;;;;;;;;;;;;;;5.79;83.32;96918.78;5075499;28;19958;-74
2021/11/15 11:48:39;;;;;;;;;;;;;;;5.77;83.93;96912.94;5074482;28;19954;-74
2021/11/15 11:51:05;;;;;;;;;;;;;;;5.73;83.98;96914.28;5074830;28;20353;-74
2021/11/15 11:53:32;;;;;;;;;;;;;;;5.72;84.63;96907.47;5074541;28;19969;-74
2021/11/15 11:55:59;;;;;;;;;;;;;;;5.74;84.41;96914.09;5074840;28;20433;-74
2021/11/15 11:58:31;;;;;;;;;;;;;;;5.78;84.83;96909.38;5074750;28;19981;-74
2021/11/15 12:00:58;;;;;;;;;;;;;;;5.75;84.27;96907.09;5074593;28;19967;-74
2021/11/15 12:03:25;;;;;;;;;;;;;;;5.75;84.05;96900.09;5075067;28;19960;-74
2021/11/15 12:05:52;;;;;;;;;;;;;;;5.72;85.01;96897.84;5074326;28;19960;-74
2021/11/15 12:08:18;;;;;;;;;;;;;;;5.74;84.83;96900.28;5074322;28;19950;-74
2021/11/15 12:10:58;;;;;;;;;;;;;;;5.77;85.36;96900.72;5074550;28;19967;-74
2021/11/15 12:13:25;;;;;;;;;;;;;;;5.75;84.30;96897.50;5074855;28;19966;-74
2021/11/15 12:15:55;;;;;;;;;;;;;;;5.79;85.05;96900.56;5074179;28;19953;-74
2021/11/15 12:18:24;;;;;;;;;;;;;;;5.81;84.48;96898.59;5074410;28;19957;-75
2021/11/15 12:20:59;;;;;;;;;;;;;;;5.79;83.79;96893.56;5062953;28;19950;-74
2021/11/15 12:23:26;;;;;;;;;;;;;;;5.77;84.97;96895.50;5074166;28;19958;-74
2021/11/15 12:26:03;;;;;;;;;;;;;;;5.77;84.87;96892.91;5074086;28;19953;-74
2021/11/15 12:28:30;;;;;;;;;;;;;;;5.79;84.75;96893.56;5073996;28;20324;-75
2021/11/15 12:30:58;;;;;;;;;;;;;;;5.77;85.20;96887.72;5074297;28;19953;-74
2021/11/15 12:33:28;;;;;;;;;;;;;;;5.82;85.50;96895.81;5074113;28;19969;-74
2021/11/15 12:35:54;;;;;;;;;;;;;;;5.81;84.37;96888.97;5074098;28;19958;-74
2021/11/15 12:38:39;;;;;;;;;;;;;;;5.81;84.26;96882.97;5073905;28;19952;-74
2021/11/15 12:41:17;;;;;;;;;;;;;;;5.81;84.51;96880.38;5073954;28;19965;-74
2021/11/15 12:44:04;;;;;;;;;;;;;;;5.84;84.59;96880.03;5073730;28;20470;-74
2021/11/15 12:46:46;;;;;;;;;;;;;;;5.88;84.45;96871.69;5074054;28;19958;-74
2021/11/15 12:49:33;;;;;;;;;;;;;;;5.85;83.39;96866.03;5073804;28;20306;-74
2021/11/15 12:52:05;;;;;;;;;;;;;;;5.78;84.09;96872.94;5073874;28;19945;-74
2021/11/15 12:54:31;;;;;;;;;;;;;;;5.77;84.21;96858.28;5073663;28;19975;-74
2021/11/15 12:56:59;;;;;;;;;;;;;;;5.75;83.66;96858.44;5073759;28;19964;-74
2021/11/15 12:59:27;;;;;;;;;;;;;;;5.78;83.53;96863.31;5073134;28;20306;-74